Christman Field Latest Observations
Date Time
MST
Temp
°F
RH
%
DewPt
°F
Wind
mph
Dir
°
Gust
mph
Dir
°
Press
in Hg
Solar
W/m^2
Prec
in
2020-01-25 00:10 29.2 76.2 22.7 1.4 256 2.8 256 24.770 0.1 0.00
2020-01-25 00:05 29.1 76.7 22.7 0.8 310 1.5 310 24.772 0.1 0.00
2020-01-25 00:00 28.8 76.7 22.4 1.3 310 2.2 338 24.773 0.0 0.00
2020-01-24 23:55 28.8 73.8 21.5 2.7 338 3.2 334 24.773 0.1 0.00
2020-01-24 23:50 28.9 74.2 21.7 1.0 334 4.6 315 24.773 0.1 0.00
2020-01-24 23:45 29.3 73.2 21.8 0.8 30 3.1 30 24.773 0.1 0.00
2020-01-24 23:40 30.0 72.3 22.2 4.3 26 5.3 36 24.773 0.1 0.00
2020-01-24 23:35 30.5 71.0 22.2 0.3 7 2.5 7 24.773 0.1 0.00
2020-01-24 23:30 30.4 71.7 22.4 0.0 7 0.0 7 24.773 0.0 0.00
2020-01-24 23:25 31.2 71.1 23.0 0.8 7 2.6 261 24.775 0.0 0.00
2020-01-24 23:20 32.0 67.1 22.3 1.8 261 2.7 261 24.776 0.0 0.00
2020-01-24 23:15 30.9 69.8 22.2 1.6 261 2.5 261 24.776 0.1 0.00
2020-01-24 23:10 30.0 73.2 22.5 1.7 261 3.0 261 24.776 0.1 0.00
2020-01-24 23:05 30.0 72.5 22.2 3.6 261 4.6 261 24.776 0.1 0.00
2020-01-24 23:00 30.4 73.0 22.8 3.6 261 5.0 274 24.777 0.1 0.00
2020-01-24 22:55 31.5 68.6 22.3 1.9 335 4.6 15 24.780 0.0 0.00
2020-01-24 22:50 31.7 68.3 22.5 3.6 15 6.0 23 24.780 0.0 0.00
2020-01-24 22:45 33.0 66.0 22.9 0.0 9 1.5 9 24.777 0.1 0.00
2020-01-24 22:40 32.7 65.8 22.5 0.0 269 0.0 269 24.776 0.0 0.00
2020-01-24 22:35 32.9 67.9 23.4 2.9 269 5.3 279 24.779 0.0 0.00
2020-01-24 22:30 33.4 64.9 22.9 2.1 285 5.1 284 24.780 0.0 0.00
2020-01-24 22:25 33.9 61.7 22.2 1.3 84 2.5 84 24.780 0.0 0.00
2020-01-24 22:20 33.9 63.4 22.8 2.7 84 3.6 78 24.778 0.0 0.00
2020-01-24 22:15 34.6 63.6 23.6 1.5 78 3.4 78 24.778 0.0 0.00
2020-01-24 22:10 35.4 60.5 23.1 0.4 141 2.0 141 24.775 0.0 0.00
2020-01-24 22:05 35.9 58.5 22.8 1.5 141 3.0 137 24.773 0.0 0.00
2020-01-24 22:00 36.2 58.1 22.9 0.0 231 0.0 242 24.773 0.0 0.00
2020-01-24 21:55 36.1 58.7 23.0 2.7 242 4.5 259 24.776 0.0 0.00
2020-01-24 21:50 36.0 59.5 23.3 4.7 260 5.4 245 24.776 0.0 0.00
2020-01-24 21:45 36.4 57.2 22.7 4.4 238 5.8 255 24.777 0.0 0.00
CIRA

Cooperative Institute for Research in the Atmosphere

Search Conferences


Sign Up!

If you would like to receive email notifications when we post new conferences, just enter your information below.

We never sell your information, you can unsubscribe at anytime

Upcoming Events